createdAt,value
2023-01-09T00:01:28.178Z,5.80
2023-01-09T00:03:56.443Z,5.80
2023-01-09T00:06:24.545Z,5.90
2023-01-09T00:08:53.975Z,5.90
2023-01-09T00:11:21.950Z,6.00
2023-01-09T00:13:49.911Z,6.00
2023-01-09T00:16:18.254Z,5.90
2023-01-09T00:18:46.615Z,5.90
2023-01-09T00:21:15.121Z,5.80
2023-01-09T00:23:43.147Z,5.80
2023-01-09T00:26:14.012Z,5.80
2023-01-09T00:28:42.340Z,5.70
2023-01-09T00:31:11.158Z,5.70
2023-01-09T00:33:42.950Z,5.70
2023-01-09T00:36:12.002Z,5.70
2023-01-09T00:38:40.913Z,5.70
2023-01-09T00:41:13.497Z,5.70
2023-01-09T00:43:43.999Z,5.70
2023-01-09T00:46:12.862Z,5.70
2023-01-09T00:48:43.587Z,5.70
2023-01-09T00:51:11.597Z,5.70
2023-01-09T00:53:42.573Z,5.70
2023-01-09T00:56:15.455Z,5.70
2023-01-09T00:58:43.869Z,5.60
2023-01-09T01:01:12.103Z,5.70
2023-01-09T01:03:40.326Z,5.70
2023-01-09T01:06:26.124Z,5.70
2023-01-09T01:08:55.766Z,5.70
2023-01-09T01:11:25.589Z,5.60
2023-01-09T01:13:53.755Z,5.60
2023-01-09T01:16:21.918Z,5.60
2023-01-09T01:18:50.569Z,5.60
2023-01-09T01:21:18.893Z,5.70
2023-01-09T01:23:46.918Z,5.70
2023-01-09T01:26:16.765Z,5.60
2023-01-09T01:28:46.248Z,5.60
2023-01-09T01:31:18.850Z,5.60
2023-01-09T01:33:46.865Z,5.60
2023-01-09T01:36:17.469Z,5.60
2023-01-09T01:38:46.791Z,5.60
2023-01-09T01:41:14.997Z,5.70
2023-01-09T01:43:55.704Z,5.70
2023-01-09T01:46:24.150Z,5.70
2023-01-09T01:48:55.031Z,5.70
2023-01-09T01:51:25.192Z,5.80
2023-01-09T01:53:56.623Z,5.80
2023-01-09T01:56:28.685Z,5.80
2023-01-09T01:59:02.553Z,5.80
2023-01-09T02:01:32.945Z,5.80
2023-01-09T02:04:02.882Z,5.80
2023-01-09T02:06:31.864Z,5.80
2023-01-09T02:08:59.775Z,5.80
2023-01-09T02:11:28.181Z,5.90
2023-01-09T02:13:57.756Z,5.90
2023-01-09T02:16:38.135Z,5.90
2023-01-09T02:19:21.472Z,5.90
2023-01-09T02:22:01.216Z,5.90
2023-01-09T02:24:58.703Z,5.90
2023-01-09T02:28:07.831Z,5.90
2023-01-09T02:30:44.836Z,5.90
2023-01-09T02:33:33.548Z,5.90
2023-01-09T02:36:14.850Z,5.90
2023-01-09T02:38:52.877Z,5.90
2023-01-09T02:41:26.047Z,5.90
2023-01-09T02:44:13.071Z,5.90
2023-01-09T02:46:42.618Z,5.90
2023-01-09T02:49:11.065Z,5.90
2023-01-09T02:51:48.558Z,5.90
2023-01-09T02:54:26.890Z,5.90
2023-01-09T02:57:10.444Z,5.90
2023-01-09T02:59:54.014Z,6.00
2023-01-09T03:02:38.411Z,6.00
2023-01-09T03:05:12.815Z,6.00
2023-01-09T03:07:44.792Z,6.10
2023-01-09T03:10:19.580Z,6.10
2023-01-09T03:12:50.929Z,6.10
2023-01-09T03:15:20.575Z,6.10
2023-01-09T03:17:51.710Z,6.20
2023-01-09T03:20:23.172Z,6.20
2023-01-09T03:22:55.928Z,6.20
2023-01-09T03:25:24.507Z,6.20
2023-01-09T03:27:56.513Z,6.20
2023-01-09T03:30:25.157Z,6.20
2023-01-09T03:32:54.588Z,6.20
2023-01-09T03:35:22.727Z,6.20
2023-01-09T03:37:51.707Z,6.20
2023-01-09T03:40:20.261Z,6.20
2023-01-09T03:42:48.565Z,6.10
2023-01-09T03:45:16.673Z,6.10
2023-01-09T03:47:44.612Z,6.20
2023-01-09T03:50:14.269Z,6.20
2023-01-09T03:52:42.300Z,6.20
2023-01-09T03:55:10.682Z,6.20
2023-01-09T03:57:38.832Z,6.20
2023-01-09T04:00:08.469Z,6.10
2023-01-09T04:02:36.481Z,6.10
2023-01-09T04:05:04.646Z,6.10
2023-01-09T04:07:34.160Z,6.20
2023-01-09T04:10:02.143Z,6.20
2023-01-09T04:12:30.302Z,6.10
2023-01-09T04:14:58.585Z,6.20
2023-01-09T04:17:26.493Z,6.20
2023-01-09T04:19:54.465Z,6.20
2023-01-09T04:22:22.490Z,6.20
2023-01-09T04:24:52.013Z,6.20
2023-01-09T04:27:20.206Z,6.20
2023-01-09T04:29:48.271Z,6.20
2023-01-09T04:32:16.431Z,6.20
2023-01-09T04:34:44.392Z,6.20
2023-01-09T04:37:12.545Z,6.10
2023-01-09T04:39:41.693Z,6.10
2023-01-09T04:42:11.101Z,6.10
2023-01-09T04:44:39.142Z,6.10
2023-01-09T04:47:07.093Z,6.10
2023-01-09T04:49:35.180Z,6.10
2023-01-09T04:52:03.192Z,6.00
2023-01-09T04:54:31.050Z,6.00
2023-01-09T04:56:59.144Z,6.00
2023-01-09T04:59:28.682Z,6.10
2023-01-09T05:01:58.444Z,6.10
2023-01-09T05:04:27.028Z,6.00
2023-01-09T05:06:54.970Z,6.00
2023-01-09T05:09:23.129Z,6.00
2023-01-09T05:11:54.388Z,6.00
2023-01-09T05:14:22.506Z,6.00
2023-01-09T05:16:51.976Z,5.90
2023-01-09T05:19:20.805Z,6.00
2023-01-09T05:21:48.871Z,5.90
2023-01-09T05:24:17.043Z,5.90
2023-01-09T05:26:45.577Z,5.90
2023-01-09T05:29:13.516Z,5.80
2023-01-09T05:31:41.542Z,5.80
2023-01-09T05:34:11.134Z,5.80
2023-01-09T05:36:39.080Z,5.80
2023-01-09T05:39:07.204Z,5.70
2023-01-09T05:41:35.214Z,5.70
2023-01-09T05:44:04.653Z,5.70
2023-01-09T05:46:33.251Z,5.70
2023-01-09T05:49:01.281Z,5.70
2023-01-09T05:51:31.873Z,5.70
2023-01-09T05:54:00.278Z,5.70
2023-01-09T05:56:30.048Z,5.70
2023-01-09T05:58:57.979Z,5.70
2023-01-09T06:01:25.954Z,5.60
2023-01-09T06:03:54.094Z,5.60
2023-01-09T06:06:22.827Z,5.60
2023-01-09T06:08:52.516Z,5.60
2023-01-09T06:11:20.605Z,5.50
2023-01-09T06:13:48.681Z,5.50
2023-01-09T06:16:16.654Z,5.50
2023-01-09T06:18:44.643Z,5.50
2023-01-09T06:21:12.602Z,5.50
2023-01-09T06:23:40.605Z,5.50
2023-01-09T06:26:10.061Z,5.50
2023-01-09T06:28:38.154Z,5.50
2023-01-09T06:31:06.409Z,5.50
2023-01-09T06:33:34.501Z,5.50
2023-01-09T06:36:02.465Z,5.50
2023-01-09T06:38:30.378Z,5.50
2023-01-09T06:40:58.492Z,5.60
2023-01-09T06:43:28.105Z,5.50
2023-01-09T06:45:56.075Z,5.50
2023-01-09T06:48:25.084Z,5.50
2023-01-09T06:50:53.827Z,5.40
2023-01-09T06:53:22.165Z,5.40
2023-01-09T06:55:50.183Z,5.30
2023-01-09T06:58:18.498Z,5.40
2023-01-09T07:00:49.244Z,5.40
2023-01-09T07:03:19.723Z,5.30
2023-01-09T07:05:48.047Z,5.30
2023-01-09T07:08:16.149Z,5.30
2023-01-09T07:10:44.285Z,5.30
2023-01-09T07:13:12.559Z,5.40
2023-01-09T07:15:40.660Z,5.40
2023-01-09T07:18:10.225Z,5.40
2023-01-09T07:20:41.235Z,5.30
2023-01-09T07:23:09.873Z,5.40
2023-01-09T07:25:37.977Z,5.40
2023-01-09T07:28:06.425Z,5.40
2023-01-09T07:30:34.680Z,5.40
2023-01-09T07:33:04.100Z,5.40
2023-01-09T07:35:33.727Z,5.40
2023-01-09T07:38:02.064Z,5.40
2023-01-09T07:40:30.352Z,5.40
2023-01-09T07:42:58.420Z,5.40
2023-01-09T07:45:26.516Z,5.40
2023-01-09T07:47:54.359Z,5.40
2023-01-09T07:50:22.369Z,5.40
2023-01-09T07:52:51.739Z,5.40
2023-01-09T07:55:19.704Z,5.50
2023-01-09T07:57:50.269Z,5.40
2023-01-09T08:00:20.989Z,5.40
2023-01-09T08:02:53.300Z,5.40
2023-01-09T08:05:21.518Z,5.30
2023-01-09T08:07:51.523Z,5.30
2023-01-09T08:10:20.572Z,5.30
2023-01-09T08:12:49.321Z,5.30
2023-01-09T08:15:18.055Z,5.30
2023-01-09T08:17:46.929Z,5.30
2023-01-09T08:20:16.804Z,5.30
2023-01-09T08:22:49.543Z,5.20
2023-01-09T08:25:19.420Z,5.10
2023-01-09T08:27:47.525Z,5.10
2023-01-09T08:30:16.610Z,5.20
2023-01-09T08:32:44.855Z,5.20
2023-01-09T08:35:12.738Z,5.20
2023-01-09T08:37:40.602Z,5.10
2023-01-09T08:40:10.111Z,5.30
2023-01-09T08:42:56.746Z,5.30
2023-01-09T08:45:41.929Z,5.20
2023-01-09T08:48:10.092Z,5.20
2023-01-09T08:50:38.417Z,5.20
2023-01-09T08:53:06.615Z,5.20
2023-01-09T08:55:34.575Z,5.20
2023-01-09T08:58:04.369Z,5.10
2023-01-09T09:00:32.288Z,5.10
2023-01-09T09:03:02.372Z,5.20
2023-01-09T09:05:32.567Z,5.20
2023-01-09T09:08:00.668Z,5.20
2023-01-09T09:10:30.125Z,5.10
2023-01-09T09:12:59.470Z,5.20
2023-01-09T09:15:29.416Z,5.20
2023-01-09T09:17:59.061Z,5.20
2023-01-09T09:20:29.147Z,5.10
2023-01-09T09:22:57.286Z,5.00
2023-01-09T09:25:25.735Z,5.20
2023-01-09T09:27:55.789Z,5.20
2023-01-09T09:30:24.720Z,5.20
2023-01-09T09:32:54.181Z,5.20
2023-01-09T09:35:22.525Z,5.20
2023-01-09T09:37:58.993Z,5.20
2023-01-09T09:40:57.265Z,5.30
2023-01-09T09:44:15.913Z,5.30
2023-01-09T09:46:51.078Z,5.30
2023-01-09T09:49:25.073Z,5.30
2023-01-09T09:52:00.996Z,5.30
2023-01-09T09:54:34.813Z,5.30
2023-01-09T09:57:05.824Z,5.30
2023-01-09T09:59:36.838Z,5.30
2023-01-09T10:02:15.584Z,5.40
2023-01-09T10:04:52.329Z,5.40
2023-01-09T10:07:24.774Z,5.40
2023-01-09T10:09:55.624Z,5.50
2023-01-09T10:12:29.083Z,5.60
2023-01-09T10:14:58.584Z,5.60
2023-01-09T10:17:39.493Z,5.60
2023-01-09T10:20:33.378Z,5.60
2023-01-09T10:23:14.418Z,5.70
2023-01-09T10:25:50.360Z,5.60
2023-01-09T10:28:37.812Z,5.60
2023-01-09T10:31:13.298Z,5.60
2023-01-09T10:33:54.057Z,5.70
2023-01-09T10:36:51.702Z,5.70
2023-01-09T10:39:23.465Z,5.70
2023-01-09T10:41:56.566Z,5.70
2023-01-09T10:44:33.239Z,5.80
2023-01-09T10:47:03.219Z,5.80
2023-01-09T10:49:31.267Z,5.80
2023-01-09T10:52:11.822Z,5.80
2023-01-09T10:54:44.079Z,5.80
2023-01-09T10:57:16.266Z,5.70
2023-01-09T10:59:44.628Z,5.80
2023-01-09T11:02:26.871Z,5.80
2023-01-09T11:04:54.947Z,5.90
2023-01-09T11:07:28.061Z,5.80
2023-01-09T11:09:57.439Z,5.80
2023-01-09T11:12:26.957Z,5.90
2023-01-09T11:14:55.027Z,5.90
2023-01-09T11:17:26.707Z,5.90
2023-01-09T11:20:06.367Z,5.90
2023-01-09T11:22:47.441Z,5.90
2023-01-09T11:25:17.570Z,6.00
2023-01-09T11:27:46.162Z,6.00
2023-01-09T11:30:26.851Z,6.10
2023-01-09T11:32:56.152Z,6.10
2023-01-09T11:35:33.758Z,6.10
2023-01-09T11:38:08.059Z,6.10
2023-01-09T11:40:50.480Z,6.10
2023-01-09T11:43:24.689Z,6.10
2023-01-09T11:46:01.109Z,6.10
2023-01-09T11:48:39.794Z,6.10
2023-01-09T11:51:18.936Z,6.10
2023-01-09T11:53:58.715Z,6.10
2023-01-09T11:56:27.186Z,6.10
2023-01-09T11:58:55.183Z,6.10
2023-01-09T12:01:48.741Z,6.10
2023-01-09T12:04:25.008Z,6.10
2023-01-09T12:07:17.486Z,6.10
2023-01-09T12:09:55.225Z,6.20
2023-01-09T12:12:31.684Z,6.20
2023-01-09T12:15:18.595Z,6.20
2023-01-09T12:18:01.508Z,6.20
2023-01-09T12:20:34.244Z,6.20
2023-01-09T12:23:21.662Z,6.20
2023-01-09T12:25:58.990Z,6.20
2023-01-09T12:28:51.264Z,6.20
2023-01-09T12:31:36.807Z,6.20
2023-01-09T12:34:17.059Z,6.20
2023-01-09T12:36:53.140Z,6.20
2023-01-09T12:39:32.219Z,6.20
2023-01-09T12:42:18.887Z,6.20
2023-01-09T12:44:52.159Z,6.20
2023-01-09T12:47:49.434Z,6.20
2023-01-09T12:50:49.045Z,6.20
2023-01-09T12:53:23.203Z,6.20
2023-01-09T12:55:58.167Z,6.20
2023-01-09T12:58:42.342Z,6.20
2023-01-09T13:01:15.641Z,6.20
2023-01-09T13:03:49.453Z,6.20
2023-01-09T13:06:19.752Z,6.20
2023-01-09T13:08:51.357Z,6.20
2023-01-09T13:11:25.485Z,6.20
2023-01-09T13:13:59.723Z,6.20
2023-01-09T13:16:31.312Z,6.20
2023-01-09T13:19:04.635Z,6.20
2023-01-09T13:21:33.443Z,6.20
2023-01-09T13:24:06.005Z,6.20
2023-01-09T13:26:40.579Z,6.20
2023-01-09T13:32:30.269Z,6.20
2023-01-09T13:34:58.595Z,6.20
2023-01-09T13:37:28.904Z,6.20
2023-01-09T13:39:58.884Z,6.20
2023-01-09T13:42:44.177Z,6.20
2023-01-09T13:45:21.763Z,6.20
2023-01-09T13:48:30.029Z,6.20
2023-01-09T13:51:31.608Z,6.30
2023-01-09T13:53:59.649Z,6.30
2023-01-09T13:56:27.691Z,6.30
2023-01-09T13:59:02.952Z,6.30
2023-01-09T14:01:45.490Z,6.30
2023-01-09T14:04:46.895Z,6.30
2023-01-09T14:07:33.362Z,6.30
2023-01-09T14:10:03.534Z,6.30
2023-01-09T14:12:34.710Z,6.30
2023-01-09T14:15:03.100Z,6.30
2023-01-09T14:17:37.627Z,6.20
2023-01-09T14:20:23.752Z,6.20
2023-01-09T14:23:18.070Z,6.20
2023-01-09T14:25:47.019Z,6.20
2023-01-09T14:28:22.979Z,6.20
2023-01-09T14:31:09.465Z,6.20
2023-01-09T14:33:37.994Z,6.20
2023-01-09T14:36:19.492Z,6.20
2023-01-09T14:38:49.167Z,6.20
2023-01-09T14:41:43.938Z,6.20
2023-01-09T14:44:27.005Z,6.20
2023-01-09T14:46:56.903Z,6.10
2023-01-09T14:49:34.361Z,6.10
2023-01-09T14:52:10.556Z,6.10
2023-01-09T14:54:41.145Z,6.10
2023-01-09T14:57:24.732Z,6.00
2023-01-09T15:00:00.678Z,6.00
2023-01-09T15:02:31.504Z,5.90
2023-01-09T15:05:05.968Z,6.00
2023-01-09T15:07:41.002Z,5.90
2023-01-09T15:10:16.028Z,5.90
2023-01-09T15:12:46.133Z,5.80
2023-01-09T15:15:16.128Z,5.70
2023-01-09T15:17:55.227Z,5.80
2023-01-09T15:20:26.777Z,5.70
2023-01-09T15:22:56.828Z,5.70
2023-01-09T15:25:38.112Z,5.60
2023-01-09T15:28:32.097Z,5.60
2023-01-09T15:31:07.015Z,5.70
2023-01-09T15:33:35.673Z,5.60
2023-01-09T15:36:09.134Z,5.50
2023-01-09T15:38:40.283Z,5.50
2023-01-09T15:41:10.763Z,5.50
2023-01-09T15:43:42.972Z,5.40
2023-01-09T15:46:12.642Z,5.40
2023-01-09T15:48:40.797Z,5.40
2023-01-09T15:51:12.001Z,5.30
2023-01-09T15:53:42.479Z,5.30
2023-01-09T15:56:20.188Z,5.30
2023-01-09T15:58:49.919Z,5.30
2023-01-09T16:01:28.451Z,5.30
2023-01-09T16:04:04.378Z,5.40
2023-01-09T16:06:34.816Z,5.40
2023-01-09T16:09:15.845Z,5.40
2023-01-09T16:11:47.976Z,5.40
2023-01-09T16:14:21.141Z,5.30
2023-01-09T16:16:51.364Z,5.40
2023-01-09T16:19:31.817Z,5.30
2023-01-09T16:22:00.963Z,5.40
2023-01-09T16:24:39.989Z,5.40
2023-01-09T16:27:28.758Z,5.60
2023-01-09T16:29:59.285Z,5.60
2023-01-09T16:32:30.604Z,5.70
2023-01-09T16:35:00.865Z,5.80
2023-01-09T16:37:29.827Z,5.80
2023-01-09T16:40:25.692Z,5.70
2023-01-09T16:43:01.113Z,5.70
2023-01-09T16:45:32.182Z,5.80
2023-01-09T16:48:00.693Z,5.80
2023-01-09T16:50:29.218Z,5.70
2023-01-09T16:52:57.735Z,5.70
2023-01-09T16:55:27.128Z,5.80
2023-01-09T16:57:55.733Z,5.80
2023-01-09T17:00:24.058Z,5.70
2023-01-09T17:02:52.031Z,5.70
2023-01-09T17:05:20.214Z,5.80
2023-01-09T17:07:49.041Z,5.70
2023-01-09T17:10:22.680Z,5.60
2023-01-09T17:12:52.176Z,5.70
2023-01-09T17:15:20.728Z,5.70
2023-01-09T17:17:48.727Z,5.70
2023-01-09T17:20:18.867Z,5.60
2023-01-09T17:22:47.025Z,5.60
2023-01-09T17:25:33.887Z,5.60
2023-01-09T17:28:21.783Z,5.50
2023-01-09T17:30:49.752Z,5.50
2023-01-09T17:33:19.465Z,5.50
2023-01-09T17:35:47.638Z,5.50
2023-01-09T17:38:15.963Z,5.50
2023-01-09T17:40:44.539Z,5.40
2023-01-09T17:43:14.114Z,5.40
2023-01-09T17:45:42.962Z,5.30
2023-01-09T17:48:16.299Z,5.20
2023-01-09T17:50:44.379Z,5.20
2023-01-09T17:53:12.708Z,5.20
2023-01-09T17:55:41.079Z,5.30
2023-01-09T17:58:09.383Z,5.20
2023-01-09T18:00:38.791Z,5.10
2023-01-09T18:03:07.577Z,5.10
2023-01-09T18:05:37.100Z,5.00
2023-01-09T18:08:05.819Z,5.00
2023-01-09T18:10:34.080Z,4.90
2023-01-09T18:13:02.172Z,4.80
2023-01-09T18:15:30.195Z,4.90
2023-01-09T18:17:59.790Z,5.00
2023-01-09T18:20:27.767Z,4.90
2023-01-09T18:22:55.838Z,4.90
2023-01-09T18:25:24.089Z,4.80
2023-01-09T18:27:52.242Z,4.90
2023-01-09T18:30:20.332Z,5.00
2023-01-09T18:32:48.388Z,4.90
2023-01-09T18:35:17.879Z,5.00
2023-01-09T18:37:45.998Z,5.00
2023-01-09T18:40:14.468Z,5.10
2023-01-09T18:42:43.595Z,5.10
2023-01-09T18:45:12.191Z,5.00
2023-01-09T18:47:40.175Z,5.00
2023-01-09T18:50:09.010Z,5.00
2023-01-09T18:52:38.333Z,5.00
2023-01-09T18:55:07.320Z,5.00
2023-01-09T18:57:35.576Z,4.90
2023-01-09T19:00:04.152Z,4.90
2023-01-09T19:02:32.164Z,5.00
2023-01-09T19:05:00.134Z,5.00
2023-01-09T19:07:28.046Z,4.90
2023-01-09T19:09:57.891Z,4.90
2023-01-09T19:12:26.048Z,4.80
2023-01-09T19:14:55.314Z,4.80
2023-01-09T19:17:23.230Z,4.80
2023-01-09T19:19:51.323Z,4.70
2023-01-09T19:22:19.529Z,4.70
2023-01-09T19:24:47.533Z,4.70
2023-01-09T19:27:17.032Z,4.70
2023-01-09T19:29:45.008Z,4.70
2023-01-09T19:32:13.918Z,4.70
2023-01-09T19:34:41.966Z,4.60
2023-01-09T19:37:10.319Z,4.60
2023-01-09T19:39:38.626Z,4.70
2023-01-09T19:42:06.684Z,4.60
2023-01-09T19:44:36.080Z,4.70
2023-01-09T19:47:04.090Z,4.70
2023-01-09T19:49:32.188Z,4.70
2023-01-09T19:52:00.713Z,4.70
2023-01-09T19:54:30.285Z,4.60
2023-01-09T19:56:58.317Z,4.60
2023-01-09T19:59:26.364Z,4.70
2023-01-09T20:01:55.882Z,4.80
2023-01-09T20:04:24.098Z,4.90
2023-01-09T20:06:53.280Z,5.00
2023-01-09T20:09:22.596Z,5.00
2023-01-09T20:11:50.757Z,5.00
2023-01-09T20:14:20.804Z,4.80
2023-01-09T20:16:49.898Z,4.80
2023-01-09T20:19:19.232Z,4.80
2023-01-09T20:21:47.628Z,4.70
2023-01-09T20:24:17.547Z,4.60
2023-01-09T20:26:47.039Z,4.60
2023-01-09T20:29:15.097Z,4.70
2023-01-09T20:31:43.178Z,4.70
2023-01-09T20:34:13.412Z,4.80
2023-01-09T20:36:42.764Z,4.80
2023-01-09T20:39:12.655Z,4.90
2023-01-09T20:41:40.911Z,4.90
2023-01-09T20:44:12.336Z,4.80
2023-01-09T20:46:42.639Z,4.80
2023-01-09T20:49:13.250Z,4.80
2023-01-09T20:51:46.585Z,4.90
2023-01-09T20:54:15.121Z,4.90
2023-01-09T20:56:43.362Z,4.80
2023-01-09T20:59:13.728Z,4.90
2023-01-09T21:01:41.675Z,4.80
2023-01-09T21:04:10.113Z,4.80
2023-01-09T21:06:38.673Z,4.80
2023-01-09T21:09:08.157Z,4.90
2023-01-09T21:11:41.217Z,4.80
2023-01-09T21:14:09.986Z,4.70
2023-01-09T21:16:37.889Z,4.70
2023-01-09T21:19:05.919Z,4.70
2023-01-09T21:21:33.769Z,4.70
2023-01-09T21:24:02.245Z,4.70
2023-01-09T21:26:31.926Z,4.70
2023-01-09T21:29:08.152Z,4.80
2023-01-09T21:31:36.519Z,4.60
2023-01-09T21:34:06.155Z,4.60
2023-01-09T21:36:35.414Z,4.60
2023-01-09T21:39:07.603Z,4.60
2023-01-09T21:41:54.910Z,4.60
2023-01-09T21:44:40.312Z,4.60
2023-01-09T21:47:08.236Z,4.60
2023-01-09T21:49:36.285Z,4.60
2023-01-09T21:52:05.642Z,4.60
2023-01-09T21:54:34.069Z,4.60
2023-01-09T21:57:04.030Z,4.50
2023-01-09T21:59:32.153Z,4.50
2023-01-09T22:02:00.857Z,4.60
2023-01-09T22:04:30.562Z,4.50
2023-01-09T22:06:58.768Z,4.40
2023-01-09T22:09:26.869Z,4.40
2023-01-09T22:11:54.752Z,4.30
2023-01-09T22:14:24.171Z,4.30
2023-01-09T22:16:52.167Z,4.30
2023-01-09T22:19:20.398Z,4.30
2023-01-09T22:21:48.852Z,4.50
2023-01-09T22:24:18.657Z,4.40
2023-01-09T22:26:46.728Z,4.50
2023-01-09T22:29:15.960Z,4.60
2023-01-09T22:31:45.457Z,4.70
2023-01-09T22:34:15.779Z,4.60
2023-01-09T22:36:44.108Z,4.50
2023-01-09T22:39:13.996Z,4.40
2023-01-09T22:41:42.872Z,4.50
2023-01-09T22:44:11.499Z,4.50
2023-01-09T22:46:39.379Z,4.60
2023-01-09T22:49:08.905Z,4.70
2023-01-09T22:51:36.862Z,4.70
2023-01-09T22:54:05.117Z,4.70
2023-01-09T22:56:33.273Z,4.70
2023-01-09T22:59:01.253Z,4.70
2023-01-09T23:01:29.309Z,4.70
2023-01-09T23:03:57.207Z,4.80
2023-01-09T23:06:26.589Z,4.80
2023-01-09T23:08:54.768Z,4.80
2023-01-09T23:11:39.357Z,4.90
2023-01-09T23:14:07.281Z,4.80
2023-01-09T23:16:35.330Z,4.70
2023-01-09T23:19:03.366Z,4.70
2023-01-09T23:21:32.730Z,4.80
2023-01-09T23:24:00.655Z,4.70
2023-01-09T23:26:28.613Z,4.80
2023-01-09T23:28:56.655Z,4.80
2023-01-09T23:31:24.657Z,4.80
2023-01-09T23:33:52.674Z,4.70
2023-01-09T23:36:22.304Z,4.80
2023-01-09T23:38:51.756Z,4.80
2023-01-09T23:41:22.271Z,4.80
2023-01-09T23:43:49.215Z,4.80
2023-01-09T23:46:17.233Z,4.80
2023-01-09T23:48:45.755Z,4.80
2023-01-09T23:51:14.536Z,4.70
2023-01-09T23:53:42.495Z,4.70
2023-01-09T23:56:11.795Z,4.60
2023-01-09T23:58:39.710Z,4.60
